createdAt,value
2022-12-08T06:04:51.996Z,9.309036
2022-12-08T06:05:52.065Z,9.309052
2022-12-08T06:06:52.088Z,9.309082
2022-12-08T06:07:51.981Z,9.309102
2022-12-08T06:08:52.051Z,9.309071
2022-12-08T06:09:52.034Z,9.309082
2022-12-08T06:10:52.025Z,9.309080
2022-12-08T06:11:52.020Z,9.309063
2022-12-08T06:12:51.984Z,9.309052
2022-12-08T06:13:52.049Z,9.309009
2022-12-08T06:14:52.039Z,9.309008
2022-12-08T06:15:51.994Z,9.309035
2022-12-08T06:16:52.013Z,9.308996
2022-12-08T06:17:52.056Z,9.308993
2022-12-08T06:18:51.961Z,9.309008
2022-12-08T06:19:52.038Z,9.309079
2022-12-08T06:20:51.959Z,9.309108
2022-12-08T06:21:51.881Z,9.309098
2022-12-08T06:22:51.817Z,9.309070
2022-12-08T06:23:51.836Z,9.309050
2022-12-08T06:24:51.843Z,9.309141
2022-12-08T06:25:51.825Z,9.309051
2022-12-08T06:26:51.850Z,9.309029
2022-12-08T06:27:51.777Z,9.309113
2022-12-08T06:28:51.795Z,9.309209
2022-12-08T06:29:51.851Z,9.309160
2022-12-08T06:30:51.829Z,9.309111
2022-12-08T06:31:51.877Z,9.309105
2022-12-08T06:32:51.770Z,9.309161
2022-12-08T06:33:51.827Z,9.309136
2022-12-08T06:34:51.850Z,9.309106
2022-12-08T06:35:51.917Z,9.309115
2022-12-08T06:36:51.912Z,9.309087
2022-12-08T06:37:51.823Z,9.309132
2022-12-08T06:38:51.811Z,9.309140
2022-12-08T06:39:51.894Z,9.309128
2022-12-08T06:40:51.764Z,9.309121
2022-12-08T06:41:51.784Z,9.309141
2022-12-08T06:42:51.824Z,9.309156
2022-12-08T06:43:51.728Z,9.309156
2022-12-08T06:44:51.787Z,9.309165
2022-12-08T06:45:51.881Z,9.309258
2022-12-08T06:46:51.759Z,9.309053
2022-12-08T06:47:51.754Z,9.309084
2022-12-08T06:48:51.773Z,9.309278
2022-12-08T06:49:51.750Z,9.309082
2022-12-08T06:50:51.822Z,9.309125
2022-12-08T06:51:51.692Z,9.309127
2022-12-08T06:53:02.805Z,9.309157
2022-12-08T06:53:53.734Z,9.309223
2022-12-08T06:54:51.688Z,9.309440
2022-12-08T06:55:59.128Z,9.309800
2022-12-08T06:56:53.715Z,9.309545
2022-12-08T06:57:54.079Z,9.309332
2022-12-08T06:58:53.224Z,9.309151
2022-12-08T06:59:52.698Z,9.309082
2022-12-08T07:00:51.644Z,9.309005
2022-12-08T07:01:51.634Z,9.309308
2022-12-08T07:02:51.652Z,9.309580
2022-12-08T07:03:51.556Z,9.309858
2022-12-08T07:04:51.930Z,9.309901
2022-12-08T07:05:51.528Z,9.309628
2022-12-08T07:06:51.561Z,9.309546
2022-12-08T07:07:51.686Z,9.309421
2022-12-08T07:08:51.658Z,9.309490
2022-12-08T07:09:51.657Z,9.309541
2022-12-08T07:10:51.589Z,9.309538
2022-12-08T07:11:51.648Z,9.309229
2022-12-08T07:12:51.582Z,9.309179
2022-12-08T07:13:51.683Z,9.309008
2022-12-08T07:14:51.639Z,9.308999
2022-12-08T07:15:51.570Z,9.309098
2022-12-08T07:16:51.638Z,9.309075
2022-12-08T07:17:56.315Z,9.309178
2022-12-08T07:18:53.537Z,9.309034
2022-12-08T07:19:51.529Z,9.309044
2022-12-08T07:20:51.521Z,9.309015
2022-12-08T07:21:51.517Z,9.308977
2022-12-08T07:22:51.504Z,9.308971
2022-12-08T07:23:57.354Z,9.308969
2022-12-08T07:24:53.445Z,9.309031
2022-12-08T07:25:51.398Z,9.308968
2022-12-08T07:26:51.496Z,9.308808
2022-12-08T07:27:51.444Z,9.308901
2022-12-08T07:28:51.433Z,9.308954
2022-12-08T07:29:51.465Z,9.309082
2022-12-08T07:30:51.531Z,9.309070
2022-12-08T07:31:51.512Z,9.309085
2022-12-08T07:32:51.478Z,9.309092
2022-12-08T07:33:51.418Z,9.309109
2022-12-08T07:34:51.480Z,9.309129
2022-12-08T07:35:51.406Z,9.309164
2022-12-08T07:37:24.628Z,9.309187
2022-12-08T07:37:51.403Z,9.309171
2022-12-08T07:38:51.410Z,9.309093
2022-12-08T07:39:51.468Z,9.309049
2022-12-08T07:40:51.354Z,9.308998
2022-12-08T07:41:52.399Z,9.309173
2022-12-08T07:42:52.427Z,9.309128
2022-12-08T07:43:51.343Z,9.309145
2022-12-08T07:44:52.349Z,9.309215
2022-12-08T07:45:51.358Z,9.309138
2022-12-08T07:47:24.328Z,9.308936
2022-12-08T07:47:51.225Z,9.309116
2022-12-08T07:48:51.374Z,9.309134
2022-12-08T07:49:51.352Z,9.309135
2022-12-08T07:50:51.285Z,9.309091
2022-12-08T07:51:51.322Z,9.308980
2022-12-08T07:52:51.284Z,9.308989
2022-12-08T07:53:54.079Z,9.308970
2022-12-08T07:54:52.247Z,9.308900
2022-12-08T07:55:51.310Z,9.308954
2022-12-08T07:56:51.286Z,9.309091
2022-12-08T07:57:51.333Z,9.309064
2022-12-08T07:58:51.183Z,9.309011
2022-12-08T07:59:51.205Z,9.309072
2022-12-08T08:00:51.246Z,9.308986
2022-12-08T08:02:06.571Z,9.309004
2022-12-08T08:02:53.273Z,9.309033
2022-12-08T08:03:51.176Z,9.309108
2022-12-08T08:04:51.653Z,9.309176
2022-12-08T08:05:51.136Z,9.309137
2022-12-08T08:06:51.123Z,9.309077
2022-12-08T08:07:51.125Z,9.308965
2022-12-08T08:08:51.086Z,9.308986
2022-12-08T08:09:51.085Z,9.308978
2022-12-08T08:10:51.130Z,9.308936
2022-12-08T08:12:14.302Z,9.308950
2022-12-08T08:12:53.087Z,9.309101
2022-12-08T08:14:24.359Z,9.309071
2022-12-08T08:14:51.113Z,9.309056
2022-12-08T08:15:51.270Z,9.309072
2022-12-08T08:16:51.233Z,9.309063
2022-12-08T08:21:47.181Z,9.309000
2022-12-08T08:25:10.855Z,9.309140
2022-12-08T08:26:10.854Z,9.309069
2022-12-08T08:27:10.860Z,9.309093
2022-12-08T08:28:10.831Z,9.309123
2022-12-08T08:29:10.812Z,9.309103
2022-12-08T08:30:12.993Z,9.309080
2022-12-08T08:31:11.838Z,9.309093
2022-12-08T08:32:10.825Z,9.309093
2022-12-08T08:36:21.228Z,9.309098
2022-12-08T08:37:21.322Z,9.309088
2022-12-08T08:38:21.406Z,9.309106
2022-12-08T08:42:30.685Z,9.309091
2022-12-08T08:43:37.578Z,9.309071
2022-12-08T08:44:32.651Z,9.309114
2022-12-08T08:45:30.626Z,9.309105
2022-12-08T08:46:30.687Z,9.309138
2022-12-08T08:47:30.630Z,9.309099
2022-12-08T08:48:30.602Z,9.309162
2022-12-08T08:50:04.052Z,9.309211
2022-12-08T08:50:35.892Z,9.309179
2022-12-08T08:51:32.635Z,9.309120
2022-12-08T08:52:30.460Z,9.309016
2022-12-08T08:53:30.513Z,9.308948
2022-12-08T08:54:30.453Z,9.308963
2022-12-08T08:55:30.433Z,9.309111
2022-12-08T08:56:30.442Z,9.309140
2022-12-08T08:57:30.784Z,9.309125
2022-12-08T08:58:30.503Z,9.309147
2022-12-08T08:59:30.459Z,9.309088
2022-12-08T09:00:30.639Z,9.309109
2022-12-08T09:01:30.733Z,9.309084
2022-12-08T09:02:30.526Z,9.309070
2022-12-08T09:03:30.599Z,9.309089
2022-12-08T09:04:30.540Z,9.309154
2022-12-08T09:05:30.434Z,9.309130
2022-12-08T09:06:30.592Z,9.309126
2022-12-08T09:07:30.519Z,9.309086
2022-12-08T09:08:30.553Z,9.309131
2022-12-08T09:09:30.490Z,9.309138
2022-12-08T09:10:30.463Z,9.309059
2022-12-08T09:11:30.450Z,9.309054
2022-12-08T09:12:30.442Z,9.309053
2022-12-08T09:13:30.488Z,9.309084
2022-12-08T09:14:30.540Z,9.309055
2022-12-08T09:15:30.421Z,9.309016
2022-12-08T09:16:34.146Z,9.308960
2022-12-08T09:17:31.429Z,9.308997
2022-12-08T09:18:30.481Z,9.309115
2022-12-08T09:19:30.414Z,9.309152
2022-12-08T09:20:30.413Z,9.309093
2022-12-08T09:21:30.395Z,9.309097
2022-12-08T09:22:30.352Z,9.309079
2022-12-08T09:23:35.222Z,9.309057
2022-12-08T09:24:32.341Z,9.309100
2022-12-08T09:25:30.336Z,9.309157
2022-12-08T09:26:30.399Z,9.309221
2022-12-08T09:27:30.364Z,9.309018
2022-12-08T09:28:30.435Z,9.308921
2022-12-08T09:29:35.656Z,9.309022
2022-12-08T09:33:35.694Z,9.309098
2022-12-08T09:34:35.718Z,9.309065
2022-12-08T09:35:35.588Z,9.309013
2022-12-08T09:36:35.646Z,9.309072
2022-12-08T09:37:35.578Z,9.309068
2022-12-08T09:38:35.588Z,9.309029
2022-12-08T09:39:35.616Z,9.309011
2022-12-08T09:40:35.584Z,9.308983
2022-12-08T09:41:39.290Z,9.309087
2022-12-08T09:43:04.094Z,9.309064
2022-12-08T09:43:35.519Z,9.308990
2022-12-08T09:44:35.559Z,9.309076
2022-12-08T09:45:35.687Z,9.309050
2022-12-08T09:46:35.604Z,9.309028
2022-12-08T09:47:36.427Z,9.309031
2022-12-08T09:48:36.564Z,9.309040
2022-12-08T09:49:35.538Z,9.309015
2022-12-08T09:50:35.580Z,9.309101
2022-12-08T09:51:35.727Z,9.309156
2022-12-08T09:52:35.706Z,9.309074
2022-12-08T09:53:36.286Z,9.309067
2022-12-08T09:54:36.580Z,9.309014
2022-12-08T09:55:35.587Z,9.309011
2022-12-08T09:59:44.924Z,9.308990
2022-12-08T10:00:44.864Z,9.309119
2022-12-08T10:01:44.974Z,9.309100
2022-12-08T10:02:44.837Z,9.309077
2022-12-08T10:03:45.002Z,9.309054
2022-12-08T10:04:44.991Z,9.309011
2022-12-08T10:05:45.019Z,9.309095
2022-12-08T10:06:44.897Z,9.309132
2022-12-08T10:07:45.054Z,9.309048
2022-12-08T10:08:44.896Z,9.309011
2022-12-08T10:09:45.001Z,9.309016
2022-12-08T10:10:44.909Z,9.309074
2022-12-08T10:11:44.980Z,9.309148
2022-12-08T10:12:44.894Z,9.309213
2022-12-08T10:13:44.946Z,9.309207
2022-12-08T10:14:45.009Z,9.309109
2022-12-08T10:15:45.026Z,9.309223
2022-12-08T10:16:44.959Z,9.309154
2022-12-08T10:17:44.877Z,9.309160
2022-12-08T10:18:44.973Z,9.309190
2022-12-08T10:19:44.882Z,9.309114
2022-12-08T10:20:44.884Z,9.309169
2022-12-08T10:21:44.937Z,9.309208
2022-12-08T10:22:45.250Z,9.309186
2022-12-08T10:23:45.882Z,9.309138
2022-12-08T10:24:44.870Z,9.309165
2022-12-08T10:25:44.828Z,9.309160
2022-12-08T10:26:44.848Z,9.309124
2022-12-08T10:28:17.749Z,9.309064
2022-12-08T10:28:45.665Z,9.309091
2022-12-08T10:29:45.721Z,9.309117
2022-12-08T10:33:44.219Z,9.309112
2022-12-08T10:34:44.118Z,9.309128
2022-12-08T10:35:44.203Z,9.309109
2022-12-08T10:40:29.976Z,9.309085
2022-12-08T10:41:29.879Z,9.309066
2022-12-08T10:42:29.924Z,9.309050
2022-12-08T10:43:29.939Z,9.309087
2022-12-08T10:44:29.903Z,9.309154
2022-12-08T10:45:29.889Z,9.309116
2022-12-08T10:46:29.933Z,9.309105
2022-12-08T10:47:29.877Z,9.309101
2022-12-08T10:48:29.864Z,9.309155
2022-12-08T10:49:29.866Z,9.309143
2022-12-08T10:50:30.108Z,9.309100
2022-12-08T10:51:29.798Z,9.309098
2022-12-08T10:52:29.740Z,9.309143
2022-12-08T10:53:29.981Z,9.309028
2022-12-08T10:54:29.724Z,9.309016
2022-12-08T10:55:29.711Z,9.309037
2022-12-08T10:56:29.719Z,9.309072
2022-12-08T10:57:29.718Z,9.309163
2022-12-08T10:58:29.663Z,9.309235
2022-12-08T10:59:29.755Z,9.309185
2022-12-08T11:00:29.980Z,9.309051
2022-12-08T11:01:30.846Z,9.308973
2022-12-08T11:02:29.846Z,9.308954
2022-12-08T11:03:29.778Z,9.308969
2022-12-08T11:04:29.737Z,9.308954
2022-12-08T11:05:29.635Z,9.308969
2022-12-08T11:06:29.779Z,9.308999
2022-12-08T11:07:29.726Z,9.309007
2022-12-08T11:08:29.782Z,9.309072
2022-12-08T11:09:29.791Z,9.309059
2022-12-08T11:10:29.706Z,9.308960
2022-12-08T11:11:29.833Z,9.308965
2022-12-08T11:12:29.811Z,9.309019
2022-12-08T11:13:29.735Z,9.309058
2022-12-08T11:17:28.186Z,9.308949
2022-12-08T11:18:28.482Z,9.309019
2022-12-08T11:19:28.144Z,9.308963
2022-12-08T11:20:28.137Z,9.309009
2022-12-08T11:21:28.068Z,9.308997
2022-12-08T11:24:48.917Z,9.309058
2022-12-08T11:26:22.201Z,9.308893
2022-12-08T11:26:48.819Z,9.308921
2022-12-08T11:27:48.827Z,9.308933
2022-12-08T11:28:48.845Z,9.309066
2022-12-08T11:29:48.815Z,9.309073
2022-12-08T11:30:48.809Z,9.308979
2022-12-08T11:31:49.045Z,9.309001
2022-12-08T11:32:48.817Z,9.308954
2022-12-08T11:33:48.770Z,9.308931
2022-12-08T11:34:48.820Z,9.309066
2022-12-08T11:35:48.718Z,9.308883
2022-12-08T11:36:48.700Z,9.308942
2022-12-08T11:37:48.712Z,9.308871
2022-12-08T11:38:48.656Z,9.308980
2022-12-08T11:39:48.660Z,9.309089
2022-12-08T11:40:48.741Z,9.309098
2022-12-08T11:41:48.796Z,9.309028
2022-12-08T11:42:48.903Z,9.309025
2022-12-08T11:43:48.816Z,9.309032
2022-12-08T11:44:48.752Z,9.309017
2022-12-08T11:48:47.608Z,9.309081
2022-12-08T11:50:48.126Z,9.309111
2022-12-08T11:51:47.191Z,9.309110
2022-12-08T11:52:47.143Z,9.309073
2022-12-08T11:53:47.108Z,9.309034
2022-12-08T11:54:47.141Z,9.309078
2022-12-08T11:55:49.920Z,9.309087
2022-12-08T11:56:48.145Z,9.308918
2022-12-08T11:57:47.071Z,9.308927
2022-12-08T11:59:18.958Z,9.309060
2022-12-08T11:59:47.045Z,9.308909
2022-12-08T12:00:46.917Z,9.308831
2022-12-08T12:01:47.109Z,9.308987
2022-12-08T12:02:47.057Z,9.308853
2022-12-08T12:03:47.076Z,9.308856
2022-12-08T12:04:47.040Z,9.308970
2022-12-08T12:06:09.165Z,9.308902
2022-12-08T12:06:56.027Z,9.308934
2022-12-08T12:07:48.971Z,9.309018
2022-12-08T12:13:03.326Z,9.309045
2022-12-08T12:14:03.340Z,9.309227
2022-12-08T12:15:03.206Z,9.309171
2022-12-08T12:16:03.155Z,9.309088
2022-12-08T12:17:03.405Z,9.309048
2022-12-08T12:18:03.180Z,9.309021
2022-12-08T12:19:03.435Z,9.309036
2022-12-08T12:20:03.511Z,9.308958
2022-12-08T12:21:03.201Z,9.309036
2022-12-08T12:22:03.316Z,9.309005
2022-12-08T12:23:03.295Z,9.309088
2022-12-08T12:24:03.260Z,9.309003
2022-12-08T12:25:03.253Z,9.309107
2022-12-08T12:26:03.254Z,9.309199
2022-12-08T12:27:03.205Z,9.308901
2022-12-08T12:28:03.259Z,9.308956
2022-12-08T12:29:03.206Z,9.309234
2022-12-08T12:30:03.223Z,9.309060
2022-12-08T12:34:12.732Z,9.308785
2022-12-08T12:35:12.657Z,9.308912
2022-12-08T12:36:12.633Z,9.309175
2022-12-08T12:37:12.604Z,9.308681
2022-12-08T12:38:12.551Z,9.308735
2022-12-08T12:39:12.581Z,9.308870
2022-12-08T12:40:12.740Z,9.308787
2022-12-08T12:41:13.018Z,9.309023
2022-12-08T16:00:50.453Z,9.308628
2022-12-08T16:01:21.931Z,9.308603
2022-12-08T16:02:22.848Z,9.308855
2022-12-08T16:03:59.382Z,9.308916
2022-12-08T16:05:11.539Z,9.309000
2022-12-08T16:07:22.324Z,9.309100
2022-12-08T16:08:45.007Z,9.309004
2022-12-08T16:09:21.734Z,9.309020
2022-12-08T16:10:20.015Z,9.309059
2022-12-08T16:12:04.643Z,9.309032
2022-12-08T17:33:30.397Z,9.309086
2022-12-08T17:34:51.301Z,9.309020
2022-12-08T17:35:30.419Z,9.309179
2022-12-08T17:36:30.407Z,9.309150
2022-12-08T17:37:30.597Z,9.309073
2022-12-08T17:38:30.457Z,9.309060
2022-12-08T17:39:30.579Z,9.309048
2022-12-08T17:40:30.523Z,9.309108
2022-12-08T17:41:30.524Z,9.309016
2022-12-08T17:42:30.407Z,9.308931
2022-12-08T18:05:29.357Z,9.309011
2022-12-08T18:06:31.220Z,9.309004
2022-12-08T22:49:27.658Z,9.308971
2022-12-08T22:50:27.623Z,9.309004
2022-12-08T22:51:27.766Z,9.308948
2022-12-08T22:52:27.683Z,9.308971
2022-12-08T22:53:27.632Z,9.308907
2022-12-08T22:54:27.582Z,9.309030
2022-12-08T22:55:27.517Z,9.308930
2022-12-08T22:56:27.444Z,9.308987
2022-12-08T22:57:27.480Z,9.309040
2022-12-08T22:58:27.562Z,9.309078
2022-12-08T22:59:27.632Z,9.309060
2022-12-08T23:00:27.576Z,9.309005
2022-12-08T23:01:27.457Z,9.308941
2022-12-08T23:02:27.463Z,9.308969
2022-12-08T23:03:27.514Z,9.308989
2022-12-08T23:04:27.657Z,9.308940
2022-12-08T23:05:27.596Z,9.308946
2022-12-08T23:06:27.853Z,9.308982
2022-12-08T23:07:27.653Z,9.309017
2022-12-08T23:08:27.773Z,9.309006
2022-12-08T23:09:27.648Z,9.309016
2022-12-08T23:10:27.541Z,9.309052
2022-12-08T23:11:27.649Z,9.308930
2022-12-08T23:12:27.456Z,9.308923
2022-12-08T23:13:28.506Z,9.308952
2022-12-08T23:14:27.373Z,9.308928
2022-12-08T23:15:27.348Z,9.308903
2022-12-08T23:16:27.455Z,9.308935
2022-12-08T23:17:27.407Z,9.308969
2022-12-08T23:18:27.392Z,9.308986
2022-12-08T23:19:27.367Z,9.308948
2022-12-08T23:20:27.614Z,9.308966
2022-12-08T23:21:27.630Z,9.308993
2022-12-08T23:22:27.356Z,9.308965
2022-12-08T23:23:49.190Z,9.309014
2022-12-08T23:24:27.286Z,9.309047
2022-12-08T23:25:27.328Z,9.308913
2022-12-08T23:26:27.462Z,9.308997
2022-12-08T23:27:27.495Z,9.309009
2022-12-08T23:28:27.552Z,9.309130
2022-12-08T23:29:27.384Z,9.309112
2022-12-08T23:30:27.387Z,9.309060
2022-12-08T23:31:27.500Z,9.309070
2022-12-08T23:32:27.592Z,9.309086
2022-12-08T23:34:27.214Z,9.309126
2022-12-08T23:36:08.088Z,9.308983
2022-12-08T23:36:27.350Z,9.309029
2022-12-08T23:37:27.399Z,9.309068
2022-12-08T23:38:27.205Z,9.309034
2022-12-08T23:39:27.183Z,9.308995
2022-12-08T23:40:27.243Z,9.308997
2022-12-08T23:41:27.133Z,9.308999
2022-12-08T23:42:27.412Z,9.309030
2022-12-08T23:43:27.188Z,9.309034
2022-12-08T23:44:27.262Z,9.309067
2022-12-08T23:45:27.206Z,9.309164
2022-12-08T23:46:27.380Z,9.309021
2022-12-08T23:47:27.486Z,9.309155
2022-12-08T23:48:27.464Z,9.309122
2022-12-08T23:49:27.419Z,9.309093
2022-12-08T23:50:27.207Z,9.309049
2022-12-08T23:51:27.193Z,9.309096
2022-12-08T23:52:27.198Z,9.309102
2022-12-08T23:53:28.512Z,9.309146
2022-12-08T23:54:28.811Z,9.309114
2022-12-08T23:55:27.181Z,9.309111
2022-12-08T23:56:30.447Z,9.309081
2022-12-08T23:57:28.192Z,9.309118
2022-12-08T23:58:27.012Z,9.309132
2022-12-08T23:59:27.035Z,9.309080
